createdAt,value
2019-04-28T00:00:01.481Z,4.40
2019-04-28T00:02:30.839Z,4.30
2019-04-28T00:05:01.450Z,4.30
2019-04-28T00:07:29.628Z,4.20
2019-04-28T00:09:58.209Z,4.20
2019-04-28T00:12:26.827Z,4.20
2019-04-28T00:14:55.326Z,4.20
2019-04-28T00:17:23.809Z,4.10
2019-04-28T00:19:53.649Z,4.10
2019-04-28T00:22:23.850Z,4.00
2019-04-28T00:24:54.063Z,3.90
2019-04-28T00:27:22.622Z,3.80
2019-04-28T00:29:51.848Z,3.70
2019-04-28T00:32:21.056Z,3.70
2019-04-28T00:34:51.175Z,3.80
2019-04-28T00:37:21.442Z,3.90
2019-04-28T00:39:50.951Z,4.00
2019-04-28T00:42:19.584Z,4.10
2019-04-28T00:44:48.154Z,4.10
2019-04-28T00:47:16.726Z,4.00
2019-04-28T00:49:48.350Z,4.10
2019-04-28T00:52:18.434Z,4.10
2019-04-28T00:54:47.436Z,4.10
2019-04-28T00:57:16.359Z,4.10
2019-04-28T00:59:54.213Z,4.10
2019-04-28T01:02:16.959Z,4.20
2019-04-28T01:04:45.510Z,4.10
2019-04-28T01:07:14.162Z,4.10
2019-04-28T01:09:42.710Z,4.10
2019-04-28T01:12:11.361Z,4.10
2019-04-28T01:14:40.895Z,4.20
2019-04-28T01:17:17.309Z,4.20
2019-04-28T01:19:47.511Z,4.20
2019-04-28T01:22:17.759Z,4.20
2019-04-28T01:24:46.373Z,4.20
2019-04-28T01:27:25.542Z,4.20
2019-04-28T01:30:05.441Z,4.20
2019-04-28T01:32:31.688Z,4.10
2019-04-28T01:35:00.235Z,4.10
2019-04-28T01:37:29.581Z,4.10
2019-04-28T01:39:59.701Z,4.10
2019-04-28T01:42:30.125Z,4.10
2019-04-28T01:45:00.589Z,4.10
2019-04-28T01:47:30.541Z,4.10
2019-04-28T01:50:00.218Z,4.10
2019-04-28T01:52:30.284Z,4.10
2019-04-28T01:55:00.446Z,4.10
2019-04-28T01:57:29.889Z,4.10
2019-04-28T01:59:59.739Z,4.10
2019-04-28T02:02:30.026Z,4.20
2019-04-28T02:04:59.866Z,4.10
2019-04-28T02:07:30.645Z,4.10
2019-04-28T02:10:00.580Z,4.00
2019-04-28T02:12:30.403Z,3.90
2019-04-28T02:15:00.914Z,3.80
2019-04-28T02:17:30.446Z,3.70
2019-04-28T02:20:00.651Z,3.60
2019-04-28T02:22:31.853Z,3.60
2019-04-28T02:25:00.403Z,3.50
2019-04-28T02:27:30.234Z,3.50
2019-04-28T02:30:00.132Z,3.50
2019-04-28T02:32:30.837Z,3.60
2019-04-28T02:35:01.455Z,3.60
2019-04-28T02:37:30.684Z,3.70
2019-04-28T02:40:02.839Z,3.80
2019-04-28T02:42:30.988Z,3.90
2019-04-28T02:45:00.605Z,4.00
2019-04-28T02:47:33.754Z,4.00
2019-04-28T02:50:01.234Z,4.00
2019-04-28T02:52:47.474Z,4.10
2019-04-28T02:55:16.053Z,4.10
2019-04-28T02:57:44.848Z,4.10
2019-04-28T03:00:13.642Z,4.00
2019-04-28T03:02:42.297Z,4.00
2019-04-28T03:05:11.779Z,4.00
2019-04-28T03:07:41.069Z,4.00
2019-04-28T03:10:11.069Z,4.00
2019-04-28T03:12:41.396Z,4.00
2019-04-28T03:15:10.474Z,4.00
2019-04-28T03:17:40.729Z,4.10
2019-04-28T03:20:10.971Z,4.10
2019-04-28T03:22:40.861Z,4.10
2019-04-28T03:25:11.471Z,4.20
2019-04-28T03:27:47.103Z,4.10
2019-04-28T03:30:17.370Z,4.20
2019-04-28T03:32:58.234Z,4.20
2019-04-28T03:35:22.423Z,4.10
2019-04-28T03:37:47.994Z,3.90
2019-04-28T03:40:16.535Z,3.80
2019-04-28T03:42:45.092Z,3.60
2019-04-28T03:45:15.301Z,3.60
2019-04-28T03:47:43.881Z,3.60
2019-04-28T03:50:12.430Z,3.70
2019-04-28T03:52:41.605Z,3.80
2019-04-28T03:55:11.667Z,3.90
2019-04-28T03:57:41.154Z,3.90
2019-04-28T04:00:11.030Z,4.00
2019-04-28T04:02:41.174Z,4.00
2019-04-28T04:05:11.188Z,4.00
2019-04-28T04:07:42.811Z,4.10
2019-04-28T04:10:17.142Z,4.10
2019-04-28T04:12:47.318Z,4.10
2019-04-28T04:15:22.513Z,4.10
2019-04-28T04:18:11.106Z,4.10
2019-04-28T04:20:40.988Z,4.10
2019-04-28T04:23:11.357Z,4.10
2019-04-28T04:25:41.692Z,4.20
2019-04-28T04:28:10.510Z,4.10
2019-04-28T04:30:40.986Z,4.20
2019-04-28T04:33:11.167Z,4.20
2019-04-28T04:35:41.226Z,4.20
2019-04-28T04:38:10.506Z,4.20
2019-04-28T04:40:41.243Z,4.20
2019-04-28T04:43:11.225Z,4.20
2019-04-28T04:45:40.635Z,4.30
2019-04-28T04:48:11.381Z,4.40
2019-04-28T04:50:41.123Z,4.40
2019-04-28T04:53:10.961Z,4.50
2019-04-28T04:55:40.778Z,4.50
2019-04-28T04:58:10.723Z,4.50
2019-04-28T05:00:56.758Z,4.60
2019-04-28T05:03:42.970Z,4.70
2019-04-28T05:06:29.884Z,5.00
2019-04-28T05:08:59.944Z,5.50
2019-04-28T05:11:30.007Z,6.90
2019-04-28T05:13:59.652Z,8.30
2019-04-28T05:16:29.759Z,10.40
2019-04-28T05:19:00.034Z,10.50
2019-04-28T05:21:32.856Z,11.40
2019-04-28T05:24:17.532Z,11.50
2019-04-28T05:26:52.386Z,11.60
2019-04-28T05:29:26.426Z,11.00
2019-04-28T05:31:54.933Z,11.90
2019-04-28T05:34:23.941Z,13.60
2019-04-28T05:36:51.661Z,13.20
2019-04-28T05:39:20.213Z,14.00
2019-04-28T05:41:50.485Z,16.50
2019-04-28T05:44:20.166Z,16.30
2019-04-28T05:46:50.665Z,17.00
2019-04-28T05:49:20.717Z,16.40
2019-04-28T05:51:50.928Z,16.90
2019-04-28T05:54:21.109Z,15.80
2019-04-28T05:57:07.089Z,15.90
2019-04-28T05:59:52.476Z,15.80
2019-04-28T06:02:25.545Z,13.60
2019-04-28T06:04:54.299Z,14.60
2019-04-28T06:07:40.548Z,15.70
2019-04-28T06:10:10.194Z,15.30
2019-04-28T06:12:40.554Z,13.00
2019-04-28T06:15:11.696Z,13.40
2019-04-28T06:17:39.827Z,14.00
2019-04-28T06:20:11.414Z,14.50
2019-04-28T06:22:38.828Z,15.00
2019-04-28T06:25:07.499Z,15.60
2019-04-28T06:27:36.119Z,15.20
2019-04-28T06:30:06.577Z,16.60
2019-04-28T06:32:35.645Z,16.40
2019-04-28T06:35:05.965Z,15.70
2019-04-28T06:37:34.597Z,17.20
2019-04-28T06:40:04.929Z,15.40
2019-04-28T06:42:33.566Z,17.10
2019-04-28T06:45:02.236Z,18.80
2019-04-28T06:47:30.842Z,19.20
2019-04-28T06:49:59.470Z,20.20
2019-04-28T06:52:28.118Z,20.30
2019-04-28T06:54:56.714Z,19.10
2019-04-28T06:57:25.388Z,18.60
2019-04-28T06:59:54.006Z,18.40
2019-04-28T07:02:22.903Z,19.90
2019-04-28T07:05:01.255Z,19.30
2019-04-28T07:07:21.759Z,18.70
2019-04-28T07:09:50.382Z,16.60
2019-04-28T07:12:19.060Z,16.10
2019-04-28T07:14:47.660Z,17.10
2019-04-28T07:17:16.302Z,19.50
2019-04-28T07:19:46.615Z,18.20
2019-04-28T07:22:22.599Z,18.90
2019-04-28T07:24:51.240Z,16.90
2019-04-28T07:27:19.874Z,16.30
2019-04-28T07:29:48.467Z,15.60
2019-04-28T07:32:17.070Z,13.60
2019-04-28T07:34:45.603Z,11.40
2019-04-28T07:40:30.631Z,14.80
2019-04-28T07:43:00.199Z,14.00
2019-04-28T07:45:28.910Z,13.30
2019-04-28T07:47:57.532Z,11.30
2019-04-28T07:50:26.215Z,13.80
2019-04-28T07:52:56.514Z,17.30
2019-04-28T07:55:25.200Z,17.70
2019-04-28T07:57:53.878Z,16.20
2019-04-28T08:00:24.080Z,14.50
2019-04-28T08:02:52.685Z,13.00
2019-04-28T08:05:22.561Z,12.50
2019-04-28T08:07:51.261Z,11.50
2019-04-28T08:10:19.891Z,10.50
2019-04-28T08:12:49.257Z,9.60
2019-04-28T08:15:17.913Z,9.20
2019-04-28T08:17:46.571Z,9.30
2019-04-28T08:20:15.249Z,13.30
2019-04-28T08:22:43.845Z,17.40
2019-04-28T08:25:12.568Z,17.30
2019-04-28T08:27:41.166Z,14.00
2019-04-28T08:30:10.015Z,12.70
2019-04-28T08:32:40.243Z,11.80
2019-04-28T08:35:09.181Z,10.70
2019-04-28T08:37:37.727Z,10.10
2019-04-28T08:40:06.460Z,9.70
2019-04-28T08:42:35.096Z,9.80
2019-04-28T08:45:04.942Z,9.40
2019-04-28T08:47:33.592Z,10.00
2019-04-28T08:50:02.190Z,13.10
2019-04-28T08:52:30.842Z,15.00
2019-04-28T08:54:59.463Z,14.40
2019-04-28T08:57:28.028Z,13.40
2019-04-28T08:59:56.638Z,12.40
2019-04-28T09:02:25.192Z,11.70
2019-04-28T09:04:54.135Z,11.60
2019-04-28T09:07:22.816Z,13.10
2019-04-28T09:09:51.438Z,14.30
2019-04-28T09:12:20.027Z,16.60
2019-04-28T09:14:48.635Z,17.10
2019-04-28T09:17:17.199Z,19.10
2019-04-28T09:19:45.833Z,18.80
2019-04-28T09:22:14.407Z,22.40
2019-04-28T09:24:43.022Z,21.80
2019-04-28T09:27:11.606Z,19.20
2019-04-28T09:29:40.246Z,16.30
2019-04-28T09:32:08.819Z,12.80
2019-04-28T09:34:37.412Z,11.00
2019-04-28T09:37:05.964Z,9.40
2019-04-28T09:39:44.743Z,8.40
2019-04-28T09:42:32.601Z,7.70
2019-04-28T09:45:03.152Z,7.60
2019-04-28T09:47:31.710Z,7.80
2019-04-28T09:50:00.295Z,8.10
2019-04-28T09:52:28.847Z,10.30
2019-04-28T09:54:57.528Z,13.20
2019-04-28T09:57:26.112Z,15.40
2019-04-28T09:59:54.648Z,15.10
2019-04-28T10:02:23.194Z,14.50
2019-04-28T10:04:51.794Z,15.50
2019-04-28T10:07:20.363Z,16.90
2019-04-28T10:09:48.963Z,17.00
2019-04-28T10:12:26.945Z,17.10
2019-04-28T10:14:47.842Z,15.40
2019-04-28T10:17:16.438Z,14.70
2019-04-28T10:19:45.025Z,15.40
2019-04-28T10:22:13.607Z,16.00
2019-04-28T10:24:42.208Z,18.10
2019-04-28T10:27:10.855Z,18.50
2019-04-28T10:29:39.576Z,18.80
2019-04-28T10:32:08.143Z,17.80
2019-04-28T10:34:36.790Z,16.30
2019-04-28T10:37:05.410Z,14.60
2019-04-28T10:39:47.578Z,14.20
2019-04-28T10:42:16.146Z,13.30
2019-04-28T10:44:46.411Z,12.20
2019-04-28T10:47:15.443Z,11.70
2019-04-28T10:49:44.009Z,11.60
2019-04-28T10:52:12.553Z,11.70
2019-04-28T10:54:41.174Z,11.60
2019-04-28T10:57:09.828Z,11.50
2019-04-28T10:59:38.424Z,10.80
2019-04-28T11:02:07.139Z,10.90
2019-04-28T11:04:39.792Z,11.80
2019-04-28T11:07:10.259Z,13.80
2019-04-28T11:09:46.038Z,14.20
2019-04-28T11:12:18.762Z,14.90
2019-04-28T11:14:47.335Z,13.90
2019-04-28T11:17:16.497Z,12.90
2019-04-28T11:19:45.075Z,12.20
2019-04-28T11:22:13.802Z,11.60
2019-04-28T11:24:42.373Z,11.40
2019-04-28T11:27:11.029Z,11.30
2019-04-28T11:29:39.577Z,11.10
2019-04-28T11:32:08.469Z,10.80
2019-04-28T11:34:50.367Z,10.60
2019-04-28T11:37:18.969Z,10.70
2019-04-28T11:39:48.081Z,11.30
2019-04-28T11:42:16.673Z,11.30
2019-04-28T11:44:45.237Z,11.70
2019-04-28T11:47:15.378Z,11.90
2019-04-28T11:49:43.940Z,12.20
2019-04-28T11:52:12.545Z,12.00
2019-04-28T11:54:41.093Z,12.80
2019-04-28T11:57:09.767Z,13.60
2019-04-28T11:59:38.332Z,14.10
2019-04-28T12:02:08.606Z,13.30
2019-04-28T12:04:37.254Z,12.90
2019-04-28T12:07:06.063Z,12.30
2019-04-28T12:09:48.560Z,11.60
2019-04-28T12:12:27.477Z,11.10
2019-04-28T12:15:13.694Z,10.70
2019-04-28T12:17:43.911Z,10.80
2019-04-28T12:20:16.794Z,10.70
2019-04-28T12:22:44.618Z,10.90
2019-04-28T12:25:13.438Z,11.00
2019-04-28T12:27:42.036Z,10.80
2019-04-28T12:30:11.721Z,10.90
2019-04-28T12:32:40.302Z,10.90
2019-04-28T12:35:08.943Z,10.90
2019-04-28T12:37:37.537Z,11.10
2019-04-28T12:40:07.032Z,11.50
2019-04-28T12:42:35.656Z,11.70
2019-04-28T12:45:06.485Z,11.70
2019-04-28T12:47:35.081Z,12.00
2019-04-28T12:50:09.650Z,12.00
2019-04-28T12:52:38.229Z,11.80
2019-04-28T12:55:07.138Z,12.10
2019-04-28T12:57:35.788Z,12.10
2019-04-28T13:00:24.180Z,12.60
2019-04-28T13:03:10.686Z,12.50
2019-04-28T13:05:40.914Z,12.10
2019-04-28T13:08:09.503Z,11.60
2019-04-28T13:10:38.081Z,11.50
2019-04-28T13:13:06.750Z,11.50
2019-04-28T13:15:35.302Z,12.20
2019-04-28T13:20:32.165Z,11.60
2019-04-28T13:23:00.760Z,11.20
2019-04-28T13:25:29.335Z,11.20
2019-04-28T13:27:57.934Z,11.30
2019-04-28T13:30:26.518Z,10.70
2019-04-28T13:32:55.100Z,10.60
2019-04-28T13:35:23.698Z,10.80
2019-04-28T13:37:52.283Z,10.60
2019-04-28T13:40:22.550Z,10.70
2019-04-28T13:42:51.158Z,10.90
2019-04-28T13:45:21.386Z,10.90
2019-04-28T13:47:50.078Z,11.30
2019-04-28T13:50:27.873Z,11.80
2019-04-28T13:52:56.544Z,12.30
2019-04-28T13:55:26.811Z,12.30
2019-04-28T13:57:56.235Z,12.60
2019-04-28T14:00:38.232Z,12.50
2019-04-28T14:03:23.107Z,12.60
2019-04-28T14:06:05.033Z,12.90
2019-04-28T14:08:33.617Z,13.40
2019-04-28T14:11:02.230Z,13.00
2019-04-28T14:13:30.906Z,12.60
2019-04-28T14:15:59.405Z,12.70
2019-04-28T14:18:28.053Z,12.70
2019-04-28T14:20:56.566Z,13.00
2019-04-28T14:23:25.181Z,13.60
2019-04-28T14:25:53.715Z,13.60
2019-04-28T14:28:22.295Z,12.90
2019-04-28T14:30:50.870Z,13.00
2019-04-28T14:33:19.473Z,13.20
2019-04-28T14:35:48.016Z,13.40
2019-04-28T14:38:16.579Z,13.60
2019-04-28T14:40:45.172Z,13.90
2019-04-28T14:43:13.749Z,13.90
2019-04-28T14:45:42.405Z,13.80
2019-04-28T14:48:11.051Z,13.60
2019-04-28T14:50:39.595Z,12.90
2019-04-28T14:53:08.840Z,13.20
2019-04-28T14:55:37.426Z,13.70
2019-04-28T14:58:05.901Z,13.50
2019-04-28T15:00:48.014Z,13.40
2019-04-28T15:03:17.806Z,13.50
2019-04-28T15:05:48.075Z,13.10
2019-04-28T15:08:30.124Z,12.60
2019-04-28T15:11:09.322Z,12.40
2019-04-28T15:13:37.883Z,12.20
2019-04-28T15:16:06.645Z,12.20
2019-04-28T15:18:35.274Z,12.10
2019-04-28T15:21:03.862Z,12.00
2019-04-28T15:23:32.421Z,12.00
2019-04-28T15:26:01.079Z,12.20
2019-04-28T15:28:29.638Z,12.10
2019-04-28T15:30:58.507Z,12.00
2019-04-28T15:33:27.155Z,12.10
2019-04-28T15:35:55.763Z,12.00
2019-04-28T15:38:24.597Z,11.90
2019-04-28T15:40:54.017Z,11.50
2019-04-28T15:43:22.602Z,11.50
2019-04-28T15:45:51.201Z,11.20
2019-04-28T15:48:19.828Z,11.10
2019-04-28T15:50:48.409Z,11.20
2019-04-28T15:53:19.384Z,11.20
2019-04-28T15:55:52.302Z,11.30
2019-04-28T15:58:29.252Z,11.30
2019-04-28T16:00:58.074Z,11.70
2019-04-28T16:03:27.031Z,12.20
2019-04-28T16:05:55.713Z,12.50
2019-04-28T16:08:24.306Z,12.90
2019-04-28T16:10:53.193Z,13.10
2019-04-28T16:13:21.781Z,13.10
2019-04-28T16:15:50.478Z,13.20
2019-04-28T16:18:19.102Z,13.60
2019-04-28T16:20:47.758Z,13.70
2019-04-28T16:23:16.430Z,13.50
2019-04-28T16:25:45.033Z,13.70
2019-04-28T16:28:13.709Z,13.70
2019-04-28T16:30:42.290Z,13.80
2019-04-28T16:33:10.869Z,13.40
2019-04-28T16:35:39.525Z,13.10
2019-04-28T16:38:08.099Z,12.90
2019-04-28T16:40:36.796Z,12.50
2019-04-28T16:43:05.381Z,12.10
2019-04-28T16:45:33.998Z,12.00
2019-04-28T16:48:02.650Z,12.00
2019-04-28T16:50:31.257Z,11.90
2019-04-28T16:52:59.835Z,11.50
2019-04-28T16:55:30.053Z,11.50
2019-04-28T16:58:16.336Z,11.60
2019-04-28T17:00:49.221Z,11.50
2019-04-28T17:03:17.174Z,11.30
2019-04-28T17:05:45.692Z,11.30
2019-04-28T17:08:14.351Z,11.10
2019-04-28T17:10:42.915Z,11.00
2019-04-28T17:13:11.583Z,10.70
2019-04-28T17:15:40.266Z,10.70
2019-04-28T17:18:08.806Z,10.60
2019-04-28T17:20:37.380Z,10.50
2019-04-28T17:23:06.059Z,10.40
2019-04-28T17:25:34.623Z,10.30
2019-04-28T17:28:03.358Z,10.20
2019-04-28T17:30:31.963Z,10.10
2019-04-28T17:33:00.555Z,10.10
2019-04-28T17:35:29.213Z,10.10
2019-04-28T17:38:06.392Z,10.20
2019-04-28T17:40:28.039Z,10.20
2019-04-28T17:42:56.693Z,10.10
2019-04-28T17:45:25.426Z,10.10
2019-04-28T17:47:55.644Z,10.00
2019-04-28T17:50:25.394Z,9.90
2019-04-28T17:52:53.976Z,9.90
2019-04-28T17:55:22.537Z,9.90
2019-04-28T17:57:51.212Z,9.80
2019-04-28T18:00:21.409Z,9.70
2019-04-28T18:03:07.786Z,9.70
2019-04-28T18:05:43.757Z,9.70
2019-04-28T18:08:20.911Z,9.70
2019-04-28T18:10:42.532Z,9.60
2019-04-28T18:13:11.444Z,9.50
2019-04-28T18:15:57.636Z,9.40
2019-04-28T18:18:33.656Z,9.40
2019-04-28T18:21:02.205Z,9.40
2019-04-28T18:23:30.800Z,9.40
2019-04-28T18:25:59.416Z,9.40
2019-04-28T18:28:27.926Z,9.40
2019-04-28T18:31:06.908Z,9.30
2019-04-28T18:33:53.348Z,9.30
2019-04-28T18:36:23.537Z,9.30
2019-04-28T18:38:59.205Z,9.20
2019-04-28T18:41:41.380Z,9.20
2019-04-28T18:44:11.536Z,9.20
2019-04-28T18:46:40.031Z,9.10
2019-04-28T18:49:08.669Z,9.00
2019-04-28T18:51:37.254Z,9.00
2019-04-28T18:54:05.950Z,9.00
2019-04-28T18:56:34.789Z,8.90
2019-04-28T18:59:03.277Z,8.90
2019-04-28T19:01:45.343Z,8.90
2019-04-28T19:04:13.984Z,8.90
2019-04-28T19:06:42.570Z,8.80
2019-04-28T19:09:18.746Z,8.80
2019-04-28T19:11:48.958Z,8.70
2019-04-28T19:14:21.889Z,8.60
2019-04-28T19:16:52.085Z,8.60
2019-04-28T19:19:22.292Z,8.40
2019-04-28T19:21:55.002Z,8.40
2019-04-28T19:24:24.419Z,8.30
2019-04-28T19:26:53.042Z,8.10
2019-04-28T19:29:21.628Z,8.00
2019-04-28T19:31:50.160Z,8.00
2019-04-28T19:34:18.746Z,7.90
2019-04-28T19:36:47.292Z,7.90
2019-04-28T19:39:15.802Z,7.90
2019-04-28T19:41:44.363Z,7.80
2019-04-28T19:44:12.932Z,7.80
2019-04-28T19:46:41.481Z,7.70
2019-04-28T19:49:10.133Z,7.60
2019-04-28T19:51:38.683Z,7.60
2019-04-28T19:54:07.745Z,7.60
2019-04-28T19:56:40.713Z,7.50
2019-04-28T19:59:13.706Z,7.40
2019-04-28T20:01:42.326Z,7.40
2019-04-28T20:04:10.822Z,7.40
2019-04-28T20:06:39.367Z,7.40
2019-04-28T20:09:08.394Z,7.30
2019-04-28T20:11:36.938Z,7.30
2019-04-28T20:14:05.771Z,7.20
2019-04-28T20:16:34.342Z,7.20
2019-04-28T20:19:02.913Z,7.20
2019-04-28T20:21:31.496Z,7.30
2019-04-28T20:24:00.045Z,7.20
2019-04-28T20:26:28.708Z,7.20
2019-04-28T20:28:57.367Z,7.10
2019-04-28T20:31:25.968Z,7.00
2019-04-28T20:33:54.573Z,6.90
2019-04-28T20:36:40.794Z,6.90
2019-04-28T20:39:16.815Z,6.90
2019-04-28T20:41:45.592Z,6.80
2019-04-28T20:44:14.249Z,6.80
2019-04-28T20:46:42.897Z,6.70
2019-04-28T20:49:11.491Z,6.70
2019-04-28T20:51:40.186Z,6.60
2019-04-28T20:54:08.717Z,6.50
2019-04-28T20:56:37.326Z,6.50
2019-04-28T20:59:06.011Z,6.40
2019-04-28T21:01:34.584Z,6.40
2019-04-28T21:04:03.200Z,6.30
2019-04-28T21:06:31.850Z,6.30
2019-04-28T21:09:00.422Z,6.20
2019-04-28T21:11:29.024Z,6.20
2019-04-28T21:13:57.660Z,6.10
2019-04-28T21:16:26.352Z,6.00
2019-04-28T21:18:54.936Z,5.90
2019-04-28T21:21:23.601Z,5.90
2019-04-28T21:23:52.186Z,5.80
2019-04-28T21:26:20.798Z,5.80
2019-04-28T21:28:49.377Z,5.70
2019-04-28T21:31:17.966Z,5.70
2019-04-28T21:33:46.593Z,5.70
2019-04-28T21:36:15.201Z,5.60
2019-04-28T21:38:43.774Z,5.60
2019-04-28T21:41:14.053Z,5.60
2019-04-28T21:43:44.268Z,5.50
2019-04-28T21:46:17.558Z,5.40
2019-04-28T21:48:50.450Z,5.40
2019-04-28T21:51:19.041Z,5.30
2019-04-28T21:53:47.580Z,5.50
2019-04-28T21:56:16.241Z,5.60
2019-04-28T21:58:44.882Z,5.60
2019-04-28T22:01:16.607Z,5.60
2019-04-28T22:03:45.176Z,5.50
2019-04-28T22:06:13.764Z,5.50
2019-04-28T22:08:42.362Z,5.40
2019-04-28T22:11:10.936Z,5.40
2019-04-28T22:13:39.542Z,5.40
2019-04-28T22:16:08.212Z,5.40
2019-04-28T22:18:36.822Z,5.30
2019-04-28T22:21:05.416Z,5.40
2019-04-28T22:23:38.590Z,5.30
2019-04-28T22:26:08.895Z,5.30
2019-04-28T22:28:37.473Z,5.30
2019-04-28T22:31:06.142Z,5.20
2019-04-28T22:33:34.707Z,5.20
2019-04-28T22:36:03.281Z,5.20
2019-04-28T22:38:31.877Z,5.20
2019-04-28T22:41:00.463Z,5.20
2019-04-28T22:43:29.084Z,5.20
2019-04-28T22:45:57.670Z,5.20
2019-04-28T22:48:26.734Z,5.10
2019-04-28T22:50:55.303Z,5.10
2019-04-28T22:53:25.515Z,5.10
2019-04-28T22:55:55.720Z,5.10
2019-04-28T22:58:31.723Z,5.10
2019-04-28T23:01:02.136Z,5.20
2019-04-28T23:03:47.362Z,5.10
2019-04-28T23:06:16.134Z,5.10
2019-04-28T23:08:44.726Z,5.00
2019-04-28T23:11:13.298Z,5.00
2019-04-28T23:13:41.897Z,5.00
2019-04-28T23:16:10.532Z,4.90
2019-04-28T23:18:39.163Z,4.80
2019-04-28T23:21:25.610Z,4.80
2019-04-28T23:23:54.259Z,4.80
2019-04-28T23:26:22.839Z,4.70
2019-04-28T23:28:51.556Z,4.70
2019-04-28T23:31:20.119Z,4.70
2019-04-28T23:33:48.715Z,4.70
2019-04-28T23:36:17.271Z,4.70
2019-04-28T23:38:45.865Z,4.80
2019-04-28T23:41:16.092Z,4.80
2019-04-28T23:43:44.696Z,4.80
2019-04-28T23:46:13.294Z,4.90
2019-04-28T23:48:41.887Z,4.90
2019-04-28T23:51:17.968Z,5.00
2019-04-28T23:54:05.718Z,5.00
2019-04-28T23:56:34.291Z,5.10
2019-04-28T23:59:02.890Z,5.10
